sensor_id;sensor_type;location;lat;lon;timestamp;P1;durP1;ratioP1;P2;durP2;ratioP2
10565;SDS011;5331;48.148;16.326;2023-06-19T00:00:49;10.45;;;9.50;;
10565;SDS011;5331;48.148;16.326;2023-06-19T00:03:16;10.02;;;9.13;;
10565;SDS011;5331;48.148;16.326;2023-06-19T00:05:43;10.80;;;9.80;;
10565;SDS011;5331;48.148;16.326;2023-06-19T00:08:11;11.23;;;10.13;;
10565;SDS011;5331;48.148;16.326;2023-06-19T00:10:38;10.55;;;9.40;;
10565;SDS011;5331;48.148;16.326;2023-06-19T00:13:05;10.75;;;9.65;;
10565;SDS011;5331;48.148;16.326;2023-06-19T00:15:32;9.30;;;8.50;;
10565;SDS011;5331;48.148;16.326;2023-06-19T00:17:59;9.90;;;9.00;;
10565;SDS011;5331;48.148;16.326;2023-06-19T00:20:26;9.63;;;8.70;;
10565;SDS011;5331;48.148;16.326;2023-06-19T00:22:53;9.23;;;8.32;;
10565;SDS011;5331;48.148;16.326;2023-06-19T00:25:21;9.25;;;8.45;;
10565;SDS011;5331;48.148;16.326;2023-06-19T00:27:48;9.82;;;8.88;;
10565;SDS011;5331;48.148;16.326;2023-06-19T00:30:15;10.23;;;9.23;;
10565;SDS011;5331;48.148;16.326;2023-06-19T00:32:43;10.07;;;9.15;;
10565;SDS011;5331;48.148;16.326;2023-06-19T00:35:13;10.40;;;9.50;;
10565;SDS011;5331;48.148;16.326;2023-06-19T00:37:41;9.65;;;8.75;;
10565;SDS011;5331;48.148;16.326;2023-06-19T00:40:12;10.50;;;9.50;;
10565;SDS011;5331;48.148;16.326;2023-06-19T00:42:49;9.77;;;8.88;;
10565;SDS011;5331;48.148;16.326;2023-06-19T00:45:15;10.10;;;9.20;;
10565;SDS011;5331;48.148;16.326;2023-06-19T00:47:42;10.18;;;9.20;;
10565;SDS011;5331;48.148;16.326;2023-06-19T00:50:10;10.07;;;9.00;;
10565;SDS011;5331;48.148;16.326;2023-06-19T00:52:39;9.63;;;8.65;;
10565;SDS011;5331;48.148;16.326;2023-06-19T00:55:06;10.23;;;9.32;;
10565;SDS011;5331;48.148;16.326;2023-06-19T00:57:34;9.45;;;8.60;;
10565;SDS011;5331;48.148;16.326;2023-06-19T01:00:03;10.07;;;8.90;;
10565;SDS011;5331;48.148;16.326;2023-06-19T01:02:32;10.25;;;9.30;;
10565;SDS011;5331;48.148;16.326;2023-06-19T01:05:00;10.27;;;9.27;;
10565;SDS011;5331;48.148;16.326;2023-06-19T01:07:31;10.23;;;9.20;;
10565;SDS011;5331;48.148;16.326;2023-06-19T01:10:09;9.63;;;8.73;;
10565;SDS011;5331;48.148;16.326;2023-06-19T01:12:40;10.40;;;9.50;;
10565;SDS011;5331;48.148;16.326;2023-06-19T01:15:17;10.85;;;9.73;;
10565;SDS011;5331;48.148;16.326;2023-06-19T01:17:45;10.40;;;9.40;;
10565;SDS011;5331;48.148;16.326;2023-06-19T01:20:13;10.43;;;9.43;;
10565;SDS011;5331;48.148;16.326;2023-06-19T01:22:42;10.00;;;9.00;;
10565;SDS011;5331;48.148;16.326;2023-06-19T01:25:10;8.98;;;8.18;;
10565;SDS011;5331;48.148;16.326;2023-06-19T01:27:39;10.15;;;9.02;;
10565;SDS011;5331;48.148;16.326;2023-06-19T01:30:08;9.55;;;8.65;;
10565;SDS011;5331;48.148;16.326;2023-06-19T01:32:40;9.88;;;8.95;;
10565;SDS011;5331;48.148;16.326;2023-06-19T01:35:13;9.55;;;8.60;;
10565;SDS011;5331;48.148;16.326;2023-06-19T01:37:43;9.63;;;8.75;;
10565;SDS011;5331;48.148;16.326;2023-06-19T01:40:11;9.80;;;8.80;;
10565;SDS011;5331;48.148;16.326;2023-06-19T01:42:40;10.55;;;9.55;;
10565;SDS011;5331;48.148;16.326;2023-06-19T01:45:08;10.00;;;9.10;;
10565;SDS011;5331;48.148;16.326;2023-06-19T01:47:35;9.98;;;8.95;;
10565;SDS011;5331;48.148;16.326;2023-06-19T01:50:02;9.85;;;8.95;;
10565;SDS011;5331;48.148;16.326;2023-06-19T01:52:30;9.40;;;8.50;;
10565;SDS011;5331;48.148;16.326;2023-06-19T01:54:58;9.65;;;8.70;;
10565;SDS011;5331;48.148;16.326;2023-06-19T01:57:25;10.02;;;8.90;;
10565;SDS011;5331;48.148;16.326;2023-06-19T01:59:52;10.13;;;9.18;;
10565;SDS011;5331;48.148;16.326;2023-06-19T02:02:19;9.23;;;8.32;;
10565;SDS011;5331;48.148;16.326;2023-06-19T02:04:46;10.55;;;9.55;;
10565;SDS011;5331;48.148;16.326;2023-06-19T02:07:13;9.45;;;8.65;;
10565;SDS011;5331;48.148;16.326;2023-06-19T02:09:40;9.68;;;8.77;;
10565;SDS011;5331;48.148;16.326;2023-06-19T02:12:09;9.27;;;8.48;;
10565;SDS011;5331;48.148;16.326;2023-06-19T02:14:36;9.40;;;8.50;;
10565;SDS011;5331;48.148;16.326;2023-06-19T02:17:02;9.10;;;8.30;;
10565;SDS011;5331;48.148;16.326;2023-06-19T02:19:29;9.65;;;8.65;;
10565;SDS011;5331;48.148;16.326;2023-06-19T02:21:56;9.20;;;8.40;;
10565;SDS011;5331;48.148;16.326;2023-06-19T02:24:23;9.65;;;8.65;;
10565;SDS011;5331;48.148;16.326;2023-06-19T02:26:50;10.40;;;8.85;;
10565;SDS011;5331;48.148;16.326;2023-06-19T02:29:19;9.50;;;8.60;;
10565;SDS011;5331;48.148;16.326;2023-06-19T02:31:46;8.48;;;7.78;;
10565;SDS011;5331;48.148;16.326;2023-06-19T02:34:13;8.90;;;8.00;;
10565;SDS011;5331;48.148;16.326;2023-06-19T02:36:40;8.15;;;7.43;;
10565;SDS011;5331;48.148;16.326;2023-06-19T02:39:08;9.35;;;8.48;;
10565;SDS011;5331;48.148;16.326;2023-06-19T02:41:35;9.10;;;8.30;;
10565;SDS011;5331;48.148;16.326;2023-06-19T02:44:03;8.85;;;8.05;;
10565;SDS011;5331;48.148;16.326;2023-06-19T02:46:31;11.02;;;8.65;;
10565;SDS011;5331;48.148;16.326;2023-06-19T02:48:58;8.65;;;7.85;;
10565;SDS011;5331;48.148;16.326;2023-06-19T02:51:26;8.95;;;8.20;;
10565;SDS011;5331;48.148;16.326;2023-06-19T02:53:53;9.75;;;8.75;;
10565;SDS011;5331;48.148;16.326;2023-06-19T02:56:19;9.27;;;8.38;;
10565;SDS011;5331;48.148;16.326;2023-06-19T02:58:46;9.52;;;8.75;;
10565;SDS011;5331;48.148;16.326;2023-06-19T03:03:49;9.13;;;8.23;;
10565;SDS011;5331;48.148;16.326;2023-06-19T03:06:17;9.15;;;8.25;;
10565;SDS011;5331;48.148;16.326;2023-06-19T03:08:44;10.43;;;9.40;;
10565;SDS011;5331;48.148;16.326;2023-06-19T03:11:12;10.50;;;9.32;;
10565;SDS011;5331;48.148;16.326;2023-06-19T03:13:44;9.27;;;8.38;;
10565;SDS011;5331;48.148;16.326;2023-06-19T03:16:12;9.00;;;8.20;;
10565;SDS011;5331;48.148;16.326;2023-06-19T03:18:39;9.20;;;8.40;;
10565;SDS011;5331;48.148;16.326;2023-06-19T03:21:07;9.25;;;8.10;;
10565;SDS011;5331;48.148;16.326;2023-06-19T03:23:34;9.05;;;8.15;;
10565;SDS011;5331;48.148;16.326;2023-06-19T03:26:01;9.55;;;8.40;;
10565;SDS011;5331;48.148;16.326;2023-06-19T03:28:28;9.02;;;8.13;;
10565;SDS011;5331;48.148;16.326;2023-06-19T03:30:55;10.57;;;9.48;;
10565;SDS011;5331;48.148;16.326;2023-06-19T03:33:22;10.55;;;9.45;;
10565;SDS011;5331;48.148;16.326;2023-06-19T03:35:49;11.07;;;9.70;;
10565;SDS011;5331;48.148;16.326;2023-06-19T03:38:18;9.02;;;8.23;;
10565;SDS011;5331;48.148;16.326;2023-06-19T03:40:45;9.60;;;8.75;;
10565;SDS011;5331;48.148;16.326;2023-06-19T03:43:12;9.48;;;8.57;;
10565;SDS011;5331;48.148;16.326;2023-06-19T03:45:39;9.63;;;8.70;;
10565;SDS011;5331;48.148;16.326;2023-06-19T03:48:06;9.18;;;8.30;;
10565;SDS011;5331;48.148;16.326;2023-06-19T03:50:33;9.80;;;8.77;;
10565;SDS011;5331;48.148;16.326;2023-06-19T03:53:00;10.15;;;8.85;;
10565;SDS011;5331;48.148;16.326;2023-06-19T03:55:28;10.80;;;9.70;;
10565;SDS011;5331;48.148;16.326;2023-06-19T03:57:55;10.70;;;9.30;;
10565;SDS011;5331;48.148;16.326;2023-06-19T04:00:22;9.68;;;8.75;;
10565;SDS011;5331;48.148;16.326;2023-06-19T04:02:49;10.38;;;9.27;;
10565;SDS011;5331;48.148;16.326;2023-06-19T04:05:16;9.98;;;9.05;;
10565;SDS011;5331;48.148;16.326;2023-06-19T04:07:44;10.93;;;9.82;;
10565;SDS011;5331;48.148;16.326;2023-06-19T04:10:11;10.10;;;9.10;;
10565;SDS011;5331;48.148;16.326;2023-06-19T04:12:40;9.77;;;8.82;;
10565;SDS011;5331;48.148;16.326;2023-06-19T04:15:07;11.48;;;10.10;;
10565;SDS011;5331;48.148;16.326;2023-06-19T04:17:35;10.35;;;9.35;;
10565;SDS011;5331;48.148;16.326;2023-06-19T04:20:03;10.52;;;9.43;;
10565;SDS011;5331;48.148;16.326;2023-06-19T04:22:35;9.77;;;8.70;;
10565;SDS011;5331;48.148;16.326;2023-06-19T04:25:03;10.02;;;9.02;;
10565;SDS011;5331;48.148;16.326;2023-06-19T04:27:31;10.45;;;9.45;;
10565;SDS011;5331;48.148;16.326;2023-06-19T04:29:59;10.35;;;9.35;;
10565;SDS011;5331;48.148;16.326;2023-06-19T04:32:27;10.73;;;9.38;;
10565;SDS011;5331;48.148;16.326;2023-06-19T04:34:54;10.23;;;9.30;;
10565;SDS011;5331;48.148;16.326;2023-06-19T04:37:21;10.75;;;9.70;;
10565;SDS011;5331;48.148;16.326;2023-06-19T04:39:47;10.80;;;9.70;;
10565;SDS011;5331;48.148;16.326;2023-06-19T04:42:15;11.13;;;10.00;;
10565;SDS011;5331;48.148;16.326;2023-06-19T04:44:44;10.38;;;9.25;;
10565;SDS011;5331;48.148;16.326;2023-06-19T04:47:13;12.15;;;10.77;;
10565;SDS011;5331;48.148;16.326;2023-06-19T04:49:47;11.65;;;10.55;;
10565;SDS011;5331;48.148;16.326;2023-06-19T04:52:14;13.57;;;10.52;;
10565;SDS011;5331;48.148;16.326;2023-06-19T04:54:41;16.77;;;12.80;;
10565;SDS011;5331;48.148;16.326;2023-06-19T04:57:08;14.93;;;13.02;;
10565;SDS011;5331;48.148;16.326;2023-06-19T04:59:35;13.65;;;12.25;;
10565;SDS011;5331;48.148;16.326;2023-06-19T05:02:03;14.23;;;12.77;;
10565;SDS011;5331;48.148;16.326;2023-06-19T05:04:33;14.27;;;12.25;;
10565;SDS011;5331;48.148;16.326;2023-06-19T05:07:01;13.55;;;12.15;;
10565;SDS011;5331;48.148;16.326;2023-06-19T05:09:28;14.07;;;11.20;;
10565;SDS011;5331;48.148;16.326;2023-06-19T05:11:56;12.80;;;11.50;;
10565;SDS011;5331;48.148;16.326;2023-06-19T05:14:26;11.90;;;10.80;;
10565;SDS011;5331;48.148;16.326;2023-06-19T05:16:57;13.45;;;12.05;;
10565;SDS011;5331;48.148;16.326;2023-06-19T05:19:24;17.67;;;12.60;;
10565;SDS011;5331;48.148;16.326;2023-06-19T05:21:55;15.20;;;13.15;;
10565;SDS011;5331;48.148;16.326;2023-06-19T05:24:23;15.43;;;13.43;;
10565;SDS011;5331;48.148;16.326;2023-06-19T05:26:51;13.20;;;11.93;;
10565;SDS011;5331;48.148;16.326;2023-06-19T05:29:18;13.02;;;11.82;;
10565;SDS011;5331;48.148;16.326;2023-06-19T05:31:45;13.50;;;12.20;;
10565;SDS011;5331;48.148;16.326;2023-06-19T05:34:12;15.02;;;13.35;;
10565;SDS011;5331;48.148;16.326;2023-06-19T05:36:40;14.35;;;12.85;;
10565;SDS011;5331;48.148;16.326;2023-06-19T05:39:13;13.23;;;11.88;;
10565;SDS011;5331;48.148;16.326;2023-06-19T05:41:41;14.57;;;12.57;;
10565;SDS011;5331;48.148;16.326;2023-06-19T05:44:40;14.23;;;12.20;;
10565;SDS011;5331;48.148;16.326;2023-06-19T05:47:13;13.20;;;11.25;;
10565;SDS011;5331;48.148;16.326;2023-06-19T05:49:42;12.80;;;11.32;;
10565;SDS011;5331;48.148;16.326;2023-06-19T05:52:13;13.07;;;11.70;;
10565;SDS011;5331;48.148;16.326;2023-06-19T05:54:42;14.25;;;11.50;;
10565;SDS011;5331;48.148;16.326;2023-06-19T05:57:11;13.25;;;11.85;;
10565;SDS011;5331;48.148;16.326;2023-06-19T06:02:55;13.05;;;11.73;;
10565;SDS011;5331;48.148;16.326;2023-06-19T06:05:24;12.70;;;11.32;;
10565;SDS011;5331;48.148;16.326;2023-06-19T06:07:54;13.98;;;11.50;;
10565;SDS011;5331;48.148;16.326;2023-06-19T06:10:31;13.43;;;12.02;;
10565;SDS011;5331;48.148;16.326;2023-06-19T06:13:01;12.45;;;11.32;;
10565;SDS011;5331;48.148;16.326;2023-06-19T06:15:29;12.55;;;11.25;;
10565;SDS011;5331;48.148;16.326;2023-06-19T06:21:17;11.80;;;10.70;;
10565;SDS011;5331;48.148;16.326;2023-06-19T06:23:45;11.70;;;10.15;;
10565;SDS011;5331;48.148;16.326;2023-06-19T06:26:22;11.88;;;10.68;;
10565;SDS011;5331;48.148;16.326;2023-06-19T06:29:09;11.80;;;10.60;;
10565;SDS011;5331;48.148;16.326;2023-06-19T06:35:50;12.80;;;11.60;;
10565;SDS011;5331;48.148;16.326;2023-06-19T06:38:17;12.77;;;11.50;;
10565;SDS011;5331;48.148;16.326;2023-06-19T06:40:45;12.90;;;11.70;;
10565;SDS011;5331;48.148;16.326;2023-06-19T06:43:14;11.52;;;10.32;;
10565;SDS011;5331;48.148;16.326;2023-06-19T06:45:41;11.80;;;9.77;;
10565;SDS011;5331;48.148;16.326;2023-06-19T06:48:09;12.77;;;11.38;;
10565;SDS011;5331;48.148;16.326;2023-06-19T06:50:37;11.65;;;10.55;;
10565;SDS011;5331;48.148;16.326;2023-06-19T06:53:10;11.50;;;10.40;;
10565;SDS011;5331;48.148;16.326;2023-06-19T06:55:38;11.30;;;10.38;;
10565;SDS011;5331;48.148;16.326;2023-06-19T06:58:05;11.43;;;10.32;;
10565;SDS011;5331;48.148;16.326;2023-06-19T07:00:34;11.82;;;10.68;;
10565;SDS011;5331;48.148;16.326;2023-06-19T07:03:08;11.60;;;10.50;;
10565;SDS011;5331;48.148;16.326;2023-06-19T07:05:52;10.95;;;9.95;;
10565;SDS011;5331;48.148;16.326;2023-06-19T07:08:38;11.30;;;10.10;;
10565;SDS011;5331;48.148;16.326;2023-06-19T07:11:25;10.98;;;9.98;;
10565;SDS011;5331;48.148;16.326;2023-06-19T07:14:01;10.45;;;9.52;;
10565;SDS011;5331;48.148;16.326;2023-06-19T07:16:39;11.20;;;10.10;;
10565;SDS011;5331;48.148;16.326;2023-06-19T07:19:08;10.30;;;9.40;;
10565;SDS011;5331;48.148;16.326;2023-06-19T07:21:46;9.48;;;8.60;;
10565;SDS011;5331;48.148;16.326;2023-06-19T07:24:17;10.43;;;9.43;;
10565;SDS011;5331;48.148;16.326;2023-06-19T07:26:48;9.98;;;9.18;;
10565;SDS011;5331;48.148;16.326;2023-06-19T07:29:26;9.02;;;8.32;;
10565;SDS011;5331;48.148;16.326;2023-06-19T07:32:10;9.43;;;8.63;;
10565;SDS011;5331;48.148;16.326;2023-06-19T07:34:41;9.93;;;8.95;;
10565;SDS011;5331;48.148;16.326;2023-06-19T07:37:10;10.05;;;8.60;;
10565;SDS011;5331;48.148;16.326;2023-06-19T07:39:42;8.82;;;8.02;;
10565;SDS011;5331;48.148;16.326;2023-06-19T07:42:09;9.30;;;8.40;;
10565;SDS011;5331;48.148;16.326;2023-06-19T07:44:36;10.18;;;9.00;;
10565;SDS011;5331;48.148;16.326;2023-06-19T07:47:03;9.82;;;9.02;;
10565;SDS011;5331;48.148;16.326;2023-06-19T07:49:35;9.43;;;8.48;;
10565;SDS011;5331;48.148;16.326;2023-06-19T07:52:16;8.95;;;8.25;;
10565;SDS011;5331;48.148;16.326;2023-06-19T07:54:50;8.73;;;8.02;;
10565;SDS011;5331;48.148;16.326;2023-06-19T07:57:18;9.48;;;8.70;;
10565;SDS011;5331;48.148;16.326;2023-06-19T07:59:45;10.07;;;9.27;;
10565;SDS011;5331;48.148;16.326;2023-06-19T08:02:14;10.65;;;9.52;;
10565;SDS011;5331;48.148;16.326;2023-06-19T08:04:42;9.63;;;8.82;;
10565;SDS011;5331;48.148;16.326;2023-06-19T08:07:09;10.57;;;9.65;;
10565;SDS011;5331;48.148;16.326;2023-06-19T08:09:36;10.68;;;9.77;;
10565;SDS011;5331;48.148;16.326;2023-06-19T08:12:04;9.95;;;9.10;;
10565;SDS011;5331;48.148;16.326;2023-06-19T08:14:31;10.35;;;9.23;;
10565;SDS011;5331;48.148;16.326;2023-06-19T08:16:58;9.85;;;8.95;;
10565;SDS011;5331;48.148;16.326;2023-06-19T08:19:32;9.30;;;8.35;;
10565;SDS011;5331;48.148;16.326;2023-06-19T08:22:06;8.82;;;8.02;;
10565;SDS011;5331;48.148;16.326;2023-06-19T08:24:33;9.23;;;8.32;;
10565;SDS011;5331;48.148;16.326;2023-06-19T08:27:01;9.20;;;8.40;;
10565;SDS011;5331;48.148;16.326;2023-06-19T08:29:31;9.45;;;8.52;;
10565;SDS011;5331;48.148;16.326;2023-06-19T08:31:58;9.05;;;8.05;;
10565;SDS011;5331;48.148;16.326;2023-06-19T08:34:27;7.97;;;7.25;;
10565;SDS011;5331;48.148;16.326;2023-06-19T08:36:54;8.98;;;8.27;;
10565;SDS011;5331;48.148;16.326;2023-06-19T08:39:22;9.30;;;8.40;;
10565;SDS011;5331;48.148;16.326;2023-06-19T08:41:49;9.20;;;8.40;;
10565;SDS011;5331;48.148;16.326;2023-06-19T08:44:18;9.40;;;8.60;;
10565;SDS011;5331;48.148;16.326;2023-06-19T08:46:45;8.75;;;7.97;;
10565;SDS011;5331;48.148;16.326;2023-06-19T08:49:12;9.07;;;8.30;;
10565;SDS011;5331;48.148;16.326;2023-06-19T08:51:39;9.57;;;8.63;;
10565;SDS011;5331;48.148;16.326;2023-06-19T08:54:07;10.45;;;8.05;;
10565;SDS011;5331;48.148;16.326;2023-06-19T08:56:36;9.50;;;8.70;;
10565;SDS011;5331;48.148;16.326;2023-06-19T08:59:09;9.90;;;8.90;;
10565;SDS011;5331;48.148;16.326;2023-06-19T09:01:36;9.07;;;8.27;;
10565;SDS011;5331;48.148;16.326;2023-06-19T09:04:08;10.18;;;8.82;;
10565;SDS011;5331;48.148;16.326;2023-06-19T09:06:36;9.10;;;8.25;;
10565;SDS011;5331;48.148;16.326;2023-06-19T09:09:12;9.07;;;8.38;;
10565;SDS011;5331;48.148;16.326;2023-06-19T09:11:41;9.00;;;8.20;;
10565;SDS011;5331;48.148;16.326;2023-06-19T09:14:11;9.75;;;8.77;;
10565;SDS011;5331;48.148;16.326;2023-06-19T09:16:38;8.95;;;8.25;;
10565;SDS011;5331;48.148;16.326;2023-06-19T09:19:07;9.27;;;8.48;;
10565;SDS011;5331;48.148;16.326;2023-06-19T09:21:35;9.48;;;8.38;;
10565;SDS011;5331;48.148;16.326;2023-06-19T09:24:04;10.30;;;9.15;;
10565;SDS011;5331;48.148;16.326;2023-06-19T09:26:32;10.13;;;9.02;;
10565;SDS011;5331;48.148;16.326;2023-06-19T09:29:10;10.43;;;8.57;;
10565;SDS011;5331;48.148;16.326;2023-06-19T09:31:41;10.77;;;9.77;;
10565;SDS011;5331;48.148;16.326;2023-06-19T09:34:08;10.38;;;9.32;;
10565;SDS011;5331;48.148;16.326;2023-06-19T09:39:48;10.43;;;9.45;;
10565;SDS011;5331;48.148;16.326;2023-06-19T09:42:24;10.00;;;9.10;;
10565;SDS011;5331;48.148;16.326;2023-06-19T09:44:59;9.90;;;8.90;;
10565;SDS011;5331;48.148;16.326;2023-06-19T09:47:30;9.82;;;8.93;;
10565;SDS011;5331;48.148;16.326;2023-06-19T09:50:09;10.07;;;8.90;;
10565;SDS011;5331;48.148;16.326;2023-06-19T09:52:55;10.43;;;9.45;;
10565;SDS011;5331;48.148;16.326;2023-06-19T09:55:26;9.73;;;8.82;;
10565;SDS011;5331;48.148;16.326;2023-06-19T09:58:05;11.48;;;9.68;;
10565;SDS011;5331;48.148;16.326;2023-06-19T10:00:34;9.55;;;8.65;;
10565;SDS011;5331;48.148;16.326;2023-06-19T10:03:02;9.57;;;8.77;;
10565;SDS011;5331;48.148;16.326;2023-06-19T10:05:30;9.65;;;8.80;;
10565;SDS011;5331;48.148;16.326;2023-06-19T10:08:01;9.77;;;8.85;;
10565;SDS011;5331;48.148;16.326;2023-06-19T10:10:30;10.27;;;9.20;;
10565;SDS011;5331;48.148;16.326;2023-06-19T10:12:57;10.50;;;9.50;;
10565;SDS011;5331;48.148;16.326;2023-06-19T10:15:26;11.00;;;9.90;;
10565;SDS011;5331;48.148;16.326;2023-06-19T10:18:00;10.35;;;9.20;;
10565;SDS011;5331;48.148;16.326;2023-06-19T10:20:29;10.30;;;9.25;;
10565;SDS011;5331;48.148;16.326;2023-06-19T10:22:58;10.93;;;9.95;;
10565;SDS011;5331;48.148;16.326;2023-06-19T10:25:31;10.02;;;9.02;;
10565;SDS011;5331;48.148;16.326;2023-06-19T10:28:00;11.02;;;9.90;;
10565;SDS011;5331;48.148;16.326;2023-06-19T10:30:31;10.43;;;9.25;;
10565;SDS011;5331;48.148;16.326;2023-06-19T10:33:01;10.90;;;9.80;;
10565;SDS011;5331;48.148;16.326;2023-06-19T10:35:29;9.80;;;8.98;;
10565;SDS011;5331;48.148;16.326;2023-06-19T10:38:03;9.82;;;9.02;;
10565;SDS011;5331;48.148;16.326;2023-06-19T10:40:31;10.98;;;9.82;;
10565;SDS011;5331;48.148;16.326;2023-06-19T10:42:58;9.90;;;9.10;;
10565;SDS011;5331;48.148;16.326;2023-06-19T10:45:25;10.40;;;9.43;;
10565;SDS011;5331;48.148;16.326;2023-06-19T10:48:03;9.98;;;9.18;;
10565;SDS011;5331;48.148;16.326;2023-06-19T10:50:33;10.10;;;9.18;;
10565;SDS011;5331;48.148;16.326;2023-06-19T10:53:02;9.63;;;8.70;;
10565;SDS011;5331;48.148;16.326;2023-06-19T10:55:28;9.75;;;8.85;;
10565;SDS011;5331;48.148;16.326;2023-06-19T10:57:55;9.77;;;8.88;;
10565;SDS011;5331;48.148;16.326;2023-06-19T11:00:26;8.85;;;8.15;;
10565;SDS011;5331;48.148;16.326;2023-06-19T11:02:54;11.48;;;9.32;;
10565;SDS011;5331;48.148;16.326;2023-06-19T11:05:24;9.25;;;8.35;;
10565;SDS011;5331;48.148;16.326;2023-06-19T11:07:52;8.77;;;7.82;;
10565;SDS011;5331;48.148;16.326;2023-06-19T11:10:21;10.35;;;9.15;;
10565;SDS011;5331;48.148;16.326;2023-06-19T11:12:48;9.10;;;8.30;;
10565;SDS011;5331;48.148;16.326;2023-06-19T11:15:16;9.05;;;8.35;;
10565;SDS011;5331;48.148;16.326;2023-06-19T11:17:43;8.57;;;7.85;;
10565;SDS011;5331;48.148;16.326;2023-06-19T11:20:10;8.73;;;7.88;;
10565;SDS011;5331;48.148;16.326;2023-06-19T11:22:40;8.13;;;7.53;;
10565;SDS011;5331;48.148;16.326;2023-06-19T11:25:09;9.30;;;8.50;;
10565;SDS011;5331;48.148;16.326;2023-06-19T11:27:45;9.50;;;8.43;;
10565;SDS011;5331;48.148;16.326;2023-06-19T11:30:18;7.93;;;7.32;;
10565;SDS011;5331;48.148;16.326;2023-06-19T11:32:56;8.40;;;7.63;;
10565;SDS011;5331;48.148;16.326;2023-06-19T11:35:32;9.45;;;8.05;;
10565;SDS011;5331;48.148;16.326;2023-06-19T11:38:02;8.10;;;7.30;;
10565;SDS011;5331;48.148;16.326;2023-06-19T11:40:38;9.20;;;8.40;;
10565;SDS011;5331;48.148;16.326;2023-06-19T11:43:06;8.63;;;7.97;;
10565;SDS011;5331;48.148;16.326;2023-06-19T11:45:43;8.50;;;7.78;;
10565;SDS011;5331;48.148;16.326;2023-06-19T11:48:12;7.50;;;6.90;;
10565;SDS011;5331;48.148;16.326;2023-06-19T11:50:39;7.50;;;6.80;;
10565;SDS011;5331;48.148;16.326;2023-06-19T11:53:07;8.15;;;7.40;;
10565;SDS011;5331;48.148;16.326;2023-06-19T11:55:40;8.10;;;7.30;;
10565;SDS011;5331;48.148;16.326;2023-06-19T11:58:08;7.82;;;7.20;;
10565;SDS011;5331;48.148;16.326;2023-06-19T12:00:36;8.00;;;7.25;;
10565;SDS011;5331;48.148;16.326;2023-06-19T12:03:03;8.13;;;7.53;;
10565;SDS011;5331;48.148;16.326;2023-06-19T12:05:30;8.40;;;7.50;;
10565;SDS011;5331;48.148;16.326;2023-06-19T12:07:57;8.02;;;7.22;;
10565;SDS011;5331;48.148;16.326;2023-06-19T12:10:28;8.20;;;7.50;;
10565;SDS011;5331;48.148;16.326;2023-06-19T12:12:55;8.63;;;7.85;;
10565;SDS011;5331;48.148;16.326;2023-06-19T12:15:24;7.85;;;7.25;;
10565;SDS011;5331;48.148;16.326;2023-06-19T12:17:51;7.22;;;6.63;;
10565;SDS011;5331;48.148;16.326;2023-06-19T12:20:19;7.82;;;7.13;;
10565;SDS011;5331;48.148;16.326;2023-06-19T12:22:46;8.32;;;7.63;;
10565;SDS011;5331;48.148;16.326;2023-06-19T12:25:13;8.00;;;7.30;;
10565;SDS011;5331;48.148;16.326;2023-06-19T12:27:46;8.18;;;7.47;;
10565;SDS011;5331;48.148;16.326;2023-06-19T12:30:15;8.70;;;7.93;;
10565;SDS011;5331;48.148;16.326;2023-06-19T12:32:42;7.40;;;6.85;;
10565;SDS011;5331;48.148;16.326;2023-06-19T12:35:09;8.13;;;7.30;;
10565;SDS011;5331;48.148;16.326;2023-06-19T12:37:36;8.52;;;7.72;;
10565;SDS011;5331;48.148;16.326;2023-06-19T12:40:03;8.15;;;7.43;;
10565;SDS011;5331;48.148;16.326;2023-06-19T12:42:36;8.07;;;7.35;;
10565;SDS011;5331;48.148;16.326;2023-06-19T12:45:05;8.38;;;7.60;;
10565;SDS011;5331;48.148;16.326;2023-06-19T12:47:32;8.02;;;7.32;;
10565;SDS011;5331;48.148;16.326;2023-06-19T12:49:59;8.35;;;7.53;;
10565;SDS011;5331;48.148;16.326;2023-06-19T12:52:26;8.68;;;7.95;;
10565;SDS011;5331;48.148;16.326;2023-06-19T12:54:55;8.50;;;7.70;;
10565;SDS011;5331;48.148;16.326;2023-06-19T12:57:24;8.85;;;8.00;;
10565;SDS011;5331;48.148;16.326;2023-06-19T12:59:52;8.57;;;7.78;;
10565;SDS011;5331;48.148;16.326;2023-06-19T13:02:21;8.20;;;7.50;;
10565;SDS011;5331;48.148;16.326;2023-06-19T13:04:48;8.32;;;7.60;;
10565;SDS011;5331;48.148;16.326;2023-06-19T13:07:16;8.07;;;7.35;;
10565;SDS011;5331;48.148;16.326;2023-06-19T13:09:44;8.23;;;7.50;;
10565;SDS011;5331;48.148;16.326;2023-06-19T13:12:11;8.23;;;7.53;;
10565;SDS011;5331;48.148;16.326;2023-06-19T13:14:39;8.13;;;7.32;;
10565;SDS011;5331;48.148;16.326;2023-06-19T13:17:07;7.82;;;7.20;;
10565;SDS011;5331;48.148;16.326;2023-06-19T13:19:36;7.68;;;6.97;;
10565;SDS011;5331;48.148;16.326;2023-06-19T13:22:05;7.93;;;7.13;;
10565;SDS011;5331;48.148;16.326;2023-06-19T13:24:32;8.02;;;7.40;;
10565;SDS011;5331;48.148;16.326;2023-06-19T13:26:59;8.63;;;7.82;;
10565;SDS011;5331;48.148;16.326;2023-06-19T13:29:27;7.68;;;6.97;;
10565;SDS011;5331;48.148;16.326;2023-06-19T13:31:54;8.45;;;7.65;;
10565;SDS011;5331;48.148;16.326;2023-06-19T13:34:21;8.30;;;7.50;;
10565;SDS011;5331;48.148;16.326;2023-06-19T13:36:49;7.57;;;6.97;;
10565;SDS011;5331;48.148;16.326;2023-06-19T13:39:16;7.68;;;6.97;;
10565;SDS011;5331;48.148;16.326;2023-06-19T13:41:44;8.00;;;7.20;;
10565;SDS011;5331;48.148;16.326;2023-06-19T13:44:11;8.00;;;7.30;;
10565;SDS011;5331;48.148;16.326;2023-06-19T13:46:39;8.20;;;7.50;;
10565;SDS011;5331;48.148;16.326;2023-06-19T13:49:07;7.97;;;7.20;;
10565;SDS011;5331;48.148;16.326;2023-06-19T13:51:41;7.38;;;6.78;;
10565;SDS011;5331;48.148;16.326;2023-06-19T13:54:37;8.00;;;7.30;;
10565;SDS011;5331;48.148;16.326;2023-06-19T13:57:04;7.55;;;6.85;;
10565;SDS011;5331;48.148;16.326;2023-06-19T13:59:32;7.97;;;7.18;;
10565;SDS011;5331;48.148;16.326;2023-06-19T14:02:11;7.45;;;6.85;;
10565;SDS011;5331;48.148;16.326;2023-06-19T14:04:38;7.68;;;6.97;;
10565;SDS011;5331;48.148;16.326;2023-06-19T14:07:06;8.30;;;7.45;;
10565;SDS011;5331;48.148;16.326;2023-06-19T14:09:33;8.10;;;7.50;;
10565;SDS011;5331;48.148;16.326;2023-06-19T14:12:02;8.13;;;7.40;;
10565;SDS011;5331;48.148;16.326;2023-06-19T14:14:30;9.65;;;7.00;;
10565;SDS011;5331;48.148;16.326;2023-06-19T14:16:57;8.15;;;7.38;;
10565;SDS011;5331;48.148;16.326;2023-06-19T14:19:31;8.18;;;7.40;;
10565;SDS011;5331;48.148;16.326;2023-06-19T14:21:59;7.78;;;7.03;;
10565;SDS011;5331;48.148;16.326;2023-06-19T14:24:30;7.70;;;7.03;;
10565;SDS011;5331;48.148;16.326;2023-06-19T14:26:56;7.95;;;7.20;;
10565;SDS011;5331;48.148;16.326;2023-06-19T14:29:26;8.25;;;7.55;;
10565;SDS011;5331;48.148;16.326;2023-06-19T14:31:55;7.25;;;6.55;;
10565;SDS011;5331;48.148;16.326;2023-06-19T14:34:25;7.85;;;7.15;;
10565;SDS011;5331;48.148;16.326;2023-06-19T14:36:52;8.10;;;7.30;;
10565;SDS011;5331;48.148;16.326;2023-06-19T14:39:21;7.78;;;7.18;;
10565;SDS011;5331;48.148;16.326;2023-06-19T14:41:51;7.63;;;6.90;;
10565;SDS011;5331;48.148;16.326;2023-06-19T14:44:41;7.80;;;7.10;;
10565;SDS011;5331;48.148;16.326;2023-06-19T14:47:10;7.25;;;6.70;;
10565;SDS011;5331;48.148;16.326;2023-06-19T14:49:38;7.57;;;6.88;;
10565;SDS011;5331;48.148;16.326;2023-06-19T14:52:06;8.07;;;7.28;;
10565;SDS011;5331;48.148;16.326;2023-06-19T14:54:33;8.07;;;7.40;;
10565;SDS011;5331;48.148;16.326;2023-06-19T14:57:00;7.53;;;6.90;;
10565;SDS011;5331;48.148;16.326;2023-06-19T14:59:27;7.82;;;7.22;;
10565;SDS011;5331;48.148;16.326;2023-06-19T15:01:57;8.70;;;6.90;;
10565;SDS011;5331;48.148;16.326;2023-06-19T15:04:24;7.60;;;7.00;;
10565;SDS011;5331;48.148;16.326;2023-06-19T15:06:51;7.38;;;6.78;;
10565;SDS011;5331;48.148;16.326;2023-06-19T15:09:21;7.53;;;6.93;;